Portada
METAR-TAF:

METAR-TAF

Aeropuertos :

Aeropuerto de Masset

Masset, Columbia Británica, Canadá

latitud: 54-01-38N, longitud: 132-07-30W, altitud: 6 m

Observación

El informe se hizo hace 10 horas y 47 minutos, a las 00:00 UTC
Viento 14 kt del norte-noroeste
Temperatura 17°C
Humedad 77%
Presión 1023 hPa
Visibilidad: 24.1 km
Cielo nuboso a una altura de 26000 ft

METAR: CZMT 140000Z 34014KT 15SM BKN260 17/13 A3020 RMK CI6 LAST STFD OBS/NEXT 141300 UTC SLP228

Hora: 03:47 (10:47 UTC)

Pronóstico

El informe se hizo hace 16 horas y 9 minutos, a las 18:38 UTC
Pronóstico válido del 13 a las 19 UTC al 13 a las 24 UTC
Viento 10 kt del norte-noroeste
Visibilidad: 10 km
Cielo nuboso a una altura de 1200 ft
Temporalmente
del 13 a las 19 UTC al 13 a las 24 UTC
Nubes dispersas a una altura de 1200 ft

TAF: CZMT 131838Z 1319/1324 34010KT P6SM BKN012 TEMPO 1319/1324 SCT012 RMK NXT FCST WILL BE ISSUED AT 141415Z

Observaciones y pronósticos meteorológicos de más de 4000 aeropuertos (mensajes METAR y TAF).

Los puntos amarillos y rojos representan las estaciones disponibles.

Ponga el ratón en el punto deseado para ver el nombre de la estación.

Haga clic para ver las observaciones y los pronósticos meteorológicos.

Para cambiar el mapa : haga clic en los botones verdes con una cruz de color negro para hacer un zoom, en el botón verde con un guión para alejar o en las flechas verdes para mapas adyacentes.


METAR-TAF: